Latest Weather Observations for McArthur River Mine

IDD60801

Issued at 7:01 am CST Saturday 4 July 2015 (issued every 30 minutes, with the page automatically refreshed every 10 minutes)

About weather observations | Map of weather stations | Latest weather observations for NT | Other Formats
Station Details ID: 014704 Name: MCARTHUR RIVER MINE AIRPORT Lat: -16.44 Lon: 136.08 Height: 40.0 m
Data from the previous 72 hours. | See also: Recent months at McArthur River Mine
Date/Time
CST
Temp
°C
App
Temp
°C
Dew
Point
Rel
Hum
%
Delta-T
°C
Wind Press
QNH
hPa
Press
MSL
hPa
Rain
since 9 am
mm
Dir
 
Spd
km/h
Gust
km/h
Spd
kts
Gust
kts
04/07:00am 9.8 7.7 4.0 67 2.6 W 4 7 2 4 1016.9 - 0.0
04/06:35am 10.0 8.7 4.0 66 2.6 CALM 0 0 0 0 1016.8 - 0.0
04/06:30am 9.9 8.6 4.1 67 2.6 CALM 0 0 0 0 1016.7 - 0.0
04/06:17am 10.0 8.7 4.2 67 2.6 CALM 0 0 0 0 1016.7 - 0.0
04/06:00am 10.0 8.6 3.7 65 2.8 CALM 0 0 0 0 1016.7 1016.7 0.0
04/05:30am 10.6 9.3 4.1 64 2.9 CALM 0 0 0 0 1016.6 - 0.0
04/05:00am 11.2 9.2 4.2 62 3.1 WNW 4 6 2 3 1016.6 - 0.0
04/04:30am 11.0 9.0 4.2 63 3.0 W 4 6 2 3 1016.5 - 0.0
04/04:00am 10.8 7.8 4.3 64 2.9 WSW 9 9 5 5 1016.4 - 0.0
04/03:30am 11.4 8.8 4.2 61 3.2 WSW 7 7 4 4 1016.5 - 0.0
04/03:00am 12.5 9.9 4.2 57 3.8 SW 7 9 4 5 1016.5 1016.5 0.0
04/02:30am 13.3 11.0 4.7 56 4.0 WSW 6 6 3 3 1016.4 - 0.0
04/02:00am 14.1 12.9 4.7 53 4.4 CALM 0 0 0 0 1016.6 - 0.0
04/01:30am 14.3 13.2 4.9 53 4.4 CALM 0 0 0 0 1016.8 - 0.0
04/01:00am 15.4 13.7 4.2 47 5.2 SSE 2 6 1 3 1016.7 - 0.0
04/12:30am 15.1 12.7 4.2 48 5.0 SE 6 9 3 5 1016.9 - 0.0
04/12:00am 16.7 14.9 3.7 42 6.0 ESE 2 9 1 5 1016.9 1016.9 0.0
 
Date/Time
CST
Temp
°C
App
Temp
°C
Dew
Point
Rel
Hum
%
Delta-T
°C
Wind Press
QNH
hPa
Press
MSL
hPa
Rain
since 9 am
mm
Dir
 
Spd
km/h
Gust
km/h
Spd
kts
Gust
kts
03/11:30pm 18.6 16.0 3.3 36 7.2 ESE 6 9 3 5 1017.0 - 0.0
03/11:00pm 18.0 15.5 3.9 39 6.6 N 6 9 3 5 1017.0 - 0.0
03/10:30pm 16.3 14.0 4.7 46 5.5 WSW 6 7 3 4 1017.0 - 0.0
03/10:00pm 16.1 13.1 4.2 45 5.6 SW 9 17 5 9 1016.9 - 0.0
03/09:34pm 16.5 14.1 4.2 44 5.8 S 6 7 3 4 1016.7 - 0.0
03/09:30pm 16.5 14.1 4.2 44 5.8 S 6 9 3 5 1016.7 - 0.0
03/09:24pm 16.8 14.2 4.2 43 5.9 S 7 9 4 5 1016.7 - 0.0
03/09:00pm 17.5 15.5 4.5 42 6.2 SW 4 7 2 4 1016.4 1016.4 0.0
03/08:30pm 18.5 16.8 3.9 38 6.9 S 2 9 1 5 1016.1 - 0.0
03/08:09pm 19.2 16.7 3.8 36 7.3 S 6 6 3 3 1015.9 - 0.0
03/08:00pm 19.3 16.8 3.9 36 7.3 SSW 6 7 3 4 1015.8 - 0.0
03/07:59pm 19.3 16.8 3.5 35 7.4 SSW 6 7 3 4 1015.8 - 0.0
03/07:30pm 21.1 19.7 3.3 31 8.5 CALM 0 0 0 0 1015.5 - 0.0
03/07:00pm 22.6 21.1 3.2 28 9.3 CALM 0 0 0 0 1015.4 - 0.0
03/06:30pm 24.6 21.9 2.7 24 10.6 S 6 6 3 3 1015.1 - 0.0
03/06:00pm 27.1 24.0 1.5 19 12.3 S 7 11 4 6 1014.9 1014.8 0.0
03/05:30pm 28.0 24.2 1.5 18 12.8 S 11 15 6 8 1014.6 - 0.0
03/05:00pm 28.6 24.3 1.2 17 13.2 S 13 17 7 9 1014.5 - 0.0
03/04:30pm 28.5 23.3 0.3 16 13.4 S 17 24 9 13 1014.4 - 0.0
03/04:00pm 29.0 23.3 0.7 16 13.6 S 20 24 11 13 1014.5 - 0.0
03/03:30pm 28.6 23.9 1.2 17 13.2 S 15 26 8 14 1014.6 - 0.0
03/03:00pm 28.6 24.1 2.0 18 13.0 SSW 15 28 8 15 1014.7 1014.6 0.0
03/02:30pm 29.2 25.9 2.5 18 13.3 SSW 9 20 5 11 1015.2 - 0.0
03/02:00pm 28.7 25.1 2.8 19 12.9 SE 11 20 6 11 1015.7 - 0.0
03/01:30pm 28.4 25.8 4.0 21 12.4 S 7 15 4 8 1016.2 - 0.0
03/01:00pm 27.6 24.4 3.3 21 12.1 E 9 17 5 9 1016.8 - 0.0
03/12:30pm 27.3 23.3 3.1 21 12.0 ENE 13 17 7 9 1017.5 - 0.0
03/12:00pm 26.6 22.0 3.8 23 11.4 ESE 17 26 9 14 1018.2 1018.2 0.0
03/11:30am 26.0 21.7 3.3 23 11.2 E 15 20 8 11 1018.8 - 0.0
03/11:00am 25.2 20.6 3.8 25 10.6 ESE 17 24 9 13 1019.3 - 0.0
03/10:30am 24.7 20.9 3.9 26 10.3 SE 13 24 7 13 1019.5 - 0.0
03/10:00am 23.8 19.2 3.7 27 9.8 SE 17 26 9 14 1019.9 - 0.0
03/09:30am 22.3 17.6 3.4 29 9.1 SE 17 26 9 14 1019.8 - 0.0
03/09:00am 20.9 16.2 3.2 31 8.4 SSE 17 28 9 15 1019.9 1019.9 0.0
03/08:30am 19.7 15.8 3.4 34 7.7 S 13 17 7 9 1019.9 - 0.0
03/08:00am 17.6 15.1 4.5 42 6.2 WSW 7 9 4 5 1019.7 - 0.0
03/07:52am 17.2 14.7 4.9 44 5.9 WSW 7 9 4 5 1019.6 - 0.0
03/07:34am 16.3 13.8 4.7 46 5.5 WSW 7 9 4 5 1019.4 - 0.0
03/07:30am 16.3 13.8 4.7 46 5.5 WSW 7 9 4 5 1019.4 - 0.0
03/07:00am 17.0 13.9 3.7 41 6.2 SSW 9 11 5 6 1019.1 - 0.0
03/06:30am 17.6 14.9 3.5 39 6.6 S 7 9 4 5 1018.8 - 0.0
03/06:00am 18.5 15.4 3.6 37 7.0 S 9 11 5 6 1018.5 1018.5 0.0
03/05:30am 18.1 15.1 3.9 39 6.7 SSW 9 11 5 6 1018.1 - 0.0
03/05:00am 18.7 15.8 4.5 39 6.8 SSW 9 11 5 6 1018.1 - 0.0
03/04:30am 19.7 16.7 4.2 36 7.4 S 9 15 5 8 1018.0 - 0.0
03/04:00am 20.2 16.9 4.7 36 7.5 S 11 15 6 8 1018.0 - 0.0
03/03:30am 20.4 16.8 5.2 37 7.5 S 13 15 7 8 1018.0 - 0.0
03/03:00am 20.3 17.5 7.0 42 6.8 S 11 15 6 8 1018.1 1018.1 0.0
03/02:30am 20.3 18.1 9.5 50 5.8 SSE 11 15 6 8 1018.2 - 0.0
03/02:00am 17.4 16.7 13.1 76 2.4 SW 9 9 5 5 1018.3 - 0.0
03/01:30am 17.8 17.8 13.7 77 2.3 SW 6 7 3 4 1018.5 - 0.0
03/01:00am 18.2 17.9 13.3 73 2.8 WSW 7 9 4 5 1018.7 - 0.0
03/12:30am 19.3 20.0 14.6 74 2.7 SSW 4 6 2 3 1018.8 - 0.0
03/12:00am 20.0 20.3 14.6 71 3.1 SSW 6 9 3 5 1018.9 1018.9 0.0
 
Date/Time
CST
Temp
°C
App
Temp
°C
Dew
Point
Rel
Hum
%
Delta-T
°C
Wind Press
QNH
hPa
Press
MSL
hPa
Rain
since 9 am
mm
Dir
 
Spd
km/h
Gust
km/h
Spd
kts
Gust
kts
02/11:30pm 21.3 21.6 14.5 65 4.0 SE 6 7 3 4 1018.9 - 0.0
02/11:00pm 22.5 23.0 15.1 63 4.4 E 6 9 3 5 1019.0 - 0.0
02/10:30pm 23.3 23.5 14.8 59 5.1 ENE 7 13 4 7 1018.9 - 0.0
02/10:00pm 23.9 23.4 14.9 57 5.4 NE 11 19 6 10 1018.6 - 0.0
02/09:30pm 23.8 23.5 14.5 56 5.5 NNE 9 13 5 7 1018.4 - 0.0
02/09:00pm 24.5 23.8 14.3 53 6.0 NNE 11 17 6 9 1018.0 1018.0 0.0
02/08:30pm 24.4 22.2 8.0 35 8.7 ESE 9 15 5 8 1017.7 - 0.0
02/08:00pm 26.2 23.8 6.8 29 10.2 S 9 11 5 6 1017.2 - 0.0
02/07:30pm 25.8 23.8 6.9 30 9.9 SSE 7 11 4 6 1016.9 - 0.0
02/07:00pm 26.8 24.9 6.8 28 10.5 SSE 6 11 3 6 1016.5 - 0.0
02/06:30pm 27.8 25.2 6.0 25 11.4 SE 9 11 5 6 1016.1 - 0.0
02/06:00pm 29.1 26.5 5.9 23 12.2 SE 9 17 5 9 1015.8 1015.8 0.0
02/05:30pm 30.2 27.1 5.5 21 13.0 SE 11 17 6 9 1015.6 - 0.0
02/05:00pm 30.7 27.3 5.9 21 13.2 SE 13 24 7 13 1015.5 - 0.0
02/04:30pm 30.9 26.6 5.3 20 13.5 SSE 17 28 9 15 1015.4 - 0.0
02/04:00pm 30.9 27.5 6.0 21 13.3 SE 13 20 7 11 1015.6 - 0.0
02/03:30pm 31.1 28.5 6.2 21 13.3 SE 9 19 5 10 1015.8 - 0.0
02/03:00pm 31.1 27.4 6.2 21 13.3 ESE 15 24 8 13 1016.0 1016.0 0.0
02/02:30pm 31.2 27.5 6.3 21 13.3 ESE 15 24 8 13 1016.5 - 0.0
02/02:00pm 30.7 27.1 6.6 22 12.9 SE 15 30 8 16 1016.9 - 0.0
02/01:30pm 30.4 26.6 7.6 24 12.4 SSE 17 33 9 18 1017.4 - 0.0
02/01:00pm 29.5 25.5 6.8 24 12.2 SE 17 22 9 12 1018.2 - 0.0
02/12:30pm 29.5 25.1 7.4 25 12.0 SE 20 32 11 17 1018.8 - 0.0
02/12:00pm 29.3 25.2 7.8 26 11.7 SE 19 30 10 16 1019.3 1019.3 0.0
02/11:30am 28.2 23.9 8.0 28 11.0 SE 20 28 11 15 1019.8 - 0.0
02/11:00am 27.7 23.2 8.6 30 10.4 SE 22 35 12 19 1020.3 - 0.0
02/10:30am 26.8 22.5 9.2 33 9.7 SE 22 35 12 19 1020.7 - 0.0
02/10:00am 26.1 21.3 9.0 34 9.3 SE 24 39 13 21 1020.9 - 0.0
02/09:30am 25.6 21.6 9.0 35 9.0 SE 20 32 11 17 1021.0 - 0.0
02/09:00am 24.7 20.7 9.0 37 8.5 SE 20 30 11 16 1020.9 1020.9 0.0
02/08:30am 23.6 20.8 8.5 38 8.1 S 13 20 7 11 1020.8 - 0.0
02/08:00am 22.2 19.9 9.0 43 7.1 S 11 15 6 8 1020.4 - 0.0
02/07:30am 18.6 17.8 11.7 64 3.8 S 7 9 4 5 1020.1 - 0.0
02/07:00am 16.4 15.7 12.0 75 2.4 SW 7 9 4 5 1019.8 - 0.0
02/06:30am 17.1 16.6 12.0 72 2.8 W 6 7 3 4 1019.4 - 0.0
02/06:23am 17.3 16.8 12.0 71 2.9 W 6 7 3 4 1019.4 - 0.0
02/06:11am 17.4 16.9 11.9 70 3.0 SW 6 7 3 4 1019.4 - 0.0
02/06:00am 17.8 17.2 11.6 67 3.4 SW 6 6 3 3 1019.3 1019.3 0.0
02/05:30am 19.7 18.5 10.4 55 5.0 S 7 9 4 5 1018.9 - 0.0
02/05:00am 21.5 19.8 10.0 48 6.2 S 9 11 5 6 1018.7 - 0.0
02/04:30am 19.6 19.5 13.8 69 3.3 SSW 7 9 4 5 1018.6 - 0.0
02/04:00am 20.8 20.5 12.8 60 4.5 SW 6 7 3 4 1018.6 - 0.0
02/03:30am 21.0 21.0 15.1 69 3.5 SSW 9 11 5 6 1018.7 - 0.0
02/03:00am 21.3 21.5 15.8 71 3.3 SW 9 13 5 7 1018.8 1018.8 0.0
02/02:30am 21.6 22.0 16.3 72 3.2 S 9 13 5 7 1019.0 - 0.0
02/02:00am 20.3 20.9 15.9 76 2.6 SSW 7 9 4 5 1019.1 - 0.0
02/01:30am 20.1 20.7 15.3 74 2.8 WSW 6 7 3 4 1019.1 - 0.0
02/01:03am 20.7 22.3 14.8 69 3.5 CALM 0 0 0 0 1019.2 - 0.0
02/01:00am 20.8 22.4 14.9 69 3.5 CALM 0 0 0 0 1019.2 - 0.0
02/12:50am 21.1 22.8 15.2 69 3.5 CALM 0 0 0 0 1019.2 - 0.0
02/12:30am 21.5 23.1 14.9 66 3.9 CALM 0 0 0 0 1019.3 - 0.0
02/12:00am 22.8 24.5 15.1 62 4.6 CALM 0 4 0 2 1019.1 1019.1 0.0
 
Date/Time
CST
Temp
°C
App
Temp
°C
Dew
Point
Rel
Hum
%
Delta-T
°C
Wind Press
QNH
hPa
Press
MSL
hPa
Rain
since 9 am
mm
Dir
 
Spd
km/h
Gust
km/h
Spd
kts
Gust
kts
01/11:30pm 23.1 23.5 15.2 61 4.7 NNE 7 9 4 5 1019.2 - 0.0
01/11:00pm 23.7 24.3 15.2 59 5.1 NNE 6 7 3 4 1019.2 - 0.0
01/10:30pm 24.3 24.7 15.2 57 5.5 NNE 7 11 4 6 1019.4 - 0.0
01/10:00pm 24.6 25.1 15.5 57 5.5 NNE 7 11 4 6 1019.2 - 0.0
01/09:30pm 24.9 25.3 15.2 54 5.8 N 7 11 4 6 1019.2 - 0.0
01/09:00pm 25.6 25.1 15.0 52 6.4 N 11 15 6 8 1018.9 1018.9 0.0
01/08:30pm 26.7 26.7 15.1 49 7.0 N 9 17 5 9 1018.5 - 0.0
01/08:00pm 27.0 26.9 13.4 43 8.0 SE 6 7 3 4 1018.0 - 0.0
01/07:30pm 27.3 27.1 12.9 41 8.4 ESE 6 7 3 4 1017.8 - 0.0
01/07:00pm 28.2 27.8 12.9 38 9.0 SE 7 9 4 5 1017.5 - 0.0
01/06:30pm 28.9 27.8 13.2 38 9.3 SE 11 15 6 8 1017.2 - 0.0
01/06:00pm 29.4 28.3 13.2 37 9.6 ESE 11 17 6 9 1017.0 1017.0 0.0
01/05:30pm 29.7 28.2 13.0 35 9.9 ESE 13 19 7 10 1016.8 - 0.0
01/05:00pm 29.9 27.5 12.8 35 10.1 E 17 26 9 14 1016.6 - 0.0
01/04:30pm 30.3 28.4 13.1 34 10.2 ESE 15 20 8 11 1016.3 - 0.0
01/04:00pm 30.2 28.3 13.0 34 10.2 ESE 15 24 8 13 1016.3 - 0.0
01/03:30pm 31.3 28.5 12.6 31 11.1 ENE 19 26 10 14 1016.3 - 0.0
01/03:00pm 30.9 29.2 13.7 35 10.3 ESE 15 24 8 13 1016.5 1016.5 0.0
01/02:30pm 31.2 29.2 13.9 35 10.5 ESE 17 28 9 15 1017.0 - 0.0
01/02:00pm 29.5 27.4 13.7 38 9.5 SE 17 28 9 15 1017.5 - 0.0
01/01:30pm 30.8 28.8 14.0 36 10.2 ESE 17 26 9 14 1018.0 - 0.0
01/01:00pm 29.2 27.4 13.4 38 9.4 E 15 28 8 15 1018.7 - 0.0
01/12:30pm 29.3 26.8 13.5 38 9.4 ESE 19 32 10 17 1019.4 - 0.0
01/12:00pm 29.2 27.7 14.2 40 9.0 ESE 15 26 8 14 1020.0 1020.0 0.0
01/11:30am 27.8 26.3 14.1 43 8.2 ESE 15 26 8 14 1020.5 - 0.0
01/11:00am 27.7 25.5 14.3 43 8.0 SE 19 26 10 14 1020.8 - 0.0
01/10:30am 27.8 25.5 14.1 43 8.2 ESE 19 30 10 16 1021.1 - 0.0
01/10:00am 26.6 24.3 14.0 46 7.5 SE 19 30 10 16 1021.2 - 0.0
01/09:30am 25.1 22.5 13.9 49 6.6 SE 20 28 11 15 1021.1 - 0.0
01/09:00am 24.1 22.0 13.6 52 6.1 SE 17 26 9 14 1021.2 1021.2 0.0
01/08:30am 22.8 22.0 13.0 54 5.6 SSE 9 15 5 8 1020.9 - 0.0
01/08:00am 21.8 20.9 12.6 56 5.2 S 9 11 5 6 1020.5 - 0.0
01/07:32am 21.3 20.5 13.0 59 4.7 S 9 11 5 6 1020.1 - 0.0
01/07:30am 21.3 20.5 13.0 59 4.7 S 9 13 5 7 1020.0 - 0.0
01/07:16am 20.9 20.8 13.8 64 4.1 S 7 11 4 6 1019.7 - 0.0

Other Formats:

Comma delimited format used in spreadsheet applications
http://www.bom.gov.au/fwo/IDD60801/IDD60801.94239.axf

JavaScript Object Notation format (JSON) in row-major order
http://www.bom.gov.au/fwo/IDD60801/IDD60801.94239.json